Potirendaba, Brazil
Current Conditions -  °F | °C
As of 12:00 PM on Tuesday 27 Jan 2015 (Local Time) from SBSR Reporting Station
Overcast Overcast  
Wind Chill: 75°   Ceiling: 8000
Heat Index: 75°   Visibility: 6mi
Dew Point: 68°   Wind: 5mph
Humidity: 78%   Direction: 40°NE
Pressure: 30.06"   Gusts: NA
Location:  21.04°S, 49.38°W
Report Text: SBSR 271400Z 04004KT 9999 FEW012 OVC080 24/20 Q1018
Loading
Personal Weather Stations






























Interactive Weather Map New forecast layout! Learn more

10-Day Weather Forecast

Advertisements
Track Severe Weather on mobile